June 12 Cultural Centre Abeokuta Helipad

NG-0016 · Ogun, 尼日利亚

使用的METAR站距离机场62 km。
罗盘
风向 的 风向 220° 直升机
风: 4 kt, 2 beaufort
0 ft 1.000 2.000 3.000 4.000 5.000
Cloud Cloud Cloud Cloud Cloud Cloud
BKN 1.500
METAR DNMM 031400Z 22004KT 9999 BKN015 35/25 Q1010 NOSIG

METAR June 12 Cultural Centre Abeokuta Helipad - NG-0016

June 12 Cultural Centre Abeokuta Helipad是,尼日利亚中的直升机场。 该机场位于纬度7,13560和经度3,35426。 这个机场没有ICAO代码,我们使用NG-0016作为参考。 机场在Kano FIR中。

该航空气象观测是针对Murtala Muhammed International Airport在2024年3月3日 15:00, 当地时间进行的。

机场观察

风向为220°,速度为4 kt。

可见度为10 km 或者更多。

有碎云在1.500 ft的高度。 破损或更高的上限为1.500 ft。

温度和风寒是35 °C。 热指数为43。 露点为25 °C,相对湿度为56%。 海平面上的气压为1010 hPa (QNH)。

白天

今天,太阳从06:58升起,在18:58降落。 这适用于June 12 Cultural Centre Abeokuta Helipad,世界夏令时可能有所不同。 当地时间与世界标准时间之间的时差为+1 小时。 当前,没有夏令时有效。

公司介绍

我们没有关于这个机场的公司信息。

体会

到Vliegles.nl去找飞行课程,跳伞和其他飞行体验。 浏览页面,了解June 12 Cultural Centre Abeokuta Helipad附近所有可用的活动。 你也可以使用搜索功能来寻找你所在地附近的特定飞行课程、跳伞或其他飞行体验。

乌云

1.500 ft BKN 碎云

温度 & 天气

温度 35 °C
露点 25 °C
相对湿度 56%
热度指数 43 °C
Kp-index 5 (0-9)

白天

日出
06:58
中午
12:58
日落
18:58 (3:13)

小工具

你想在你的网站上有一个关于June 12 Cultural Centre Abeokuta Helipad的当前航空天气(METAR)的小部件吗?

显示HTML代码
?>